Portada
METAR-TAF:

METAR-TAF

Aeroports :

Kunming, Xina

latitud: 25-01N, longitud: 102-41E, altitud: 1892 m

Observació

L'informe es va fer fa 55 minuts, a les 16:00 UTC
Vent 8 kt del Sud-Oest
Temperatura 8°C
Humitat 66%
Pressió 1023 hPa
Visibilitat 10 km o més
sense núvols per sota de 1500 mi sense presència de cumulonimbus.

METAR: ZPPP 211600Z 22004MPS CAVOK 08/02 Q1023 NOSIG

Hora: 00:55 (16:55 UTC)

Pronòstic

L'informe es va fer fa 9 hores i 47 minuts, a les 07:08 UTC
Pronòstic vàlid del 21 a les 12 UTC al 22 a les 12 UTC
Vent 12 kt del Sud-Oest
Visibilitat 10 km o més
sense núvols per sota de 1500 mi sense presència de cumulonimbus.
Evolucionant progressivament
l' 22 a les 03 UTC al 22 a les 04 UTC
Vent 23 kt del Sud-Oest amb ràfegues de 33 kt
Evolucionant progressivament
l' 22 a les 11 UTC al 22 a les 12 UTC
Vent 12 kt del Sud-Oest

TAF: ZPPP 210708Z 2112/2212 23006MPS CAVOK TX19/2208Z TN05/2123Z BECMG 2203/2204 23012G17MPS BECMG 2211/2212 23006MPS

Observacions i pronòstics meteorològics de més de 4000 aeroports (METAR i TAF).

Les estacions disponibles són els punts grocs i vermells al mapa.

Posi el ratolí al punt desitjat per veure el nom de l'estació.

Feu clic per veure les observacions i els pronòstics meteorològics.

Per canviar el mapa: feu clic els botons verds amb una creu de color negre per apropar; al botó verd amb un guió per allunyar la imatge; o en les fletxes verdes per a mapes adjacents.


METAR-TAF: